createdAt,value
2018-04-14T00:04:50.337Z,33.53
2018-04-14T00:07:18.438Z,34.23
2018-04-14T00:09:46.525Z,35.70
2018-04-14T00:12:32.026Z,33.10
2018-04-14T00:15:01.042Z,36.93
2018-04-14T00:17:30.603Z,35.53
2018-04-14T00:20:01.711Z,35.47
2018-04-14T00:22:55.167Z,37.40
2018-04-14T00:25:24.212Z,36.40
2018-04-14T00:28:16.632Z,35.13
2018-04-14T00:30:52.902Z,36.90
2018-04-14T00:33:20.994Z,39.20
2018-04-14T00:35:58.322Z,40.87
2018-04-14T00:38:27.309Z,37.60
2018-04-14T00:40:58.064Z,40.80
2018-04-14T00:43:38.416Z,41.67
2018-04-14T00:46:07.262Z,41.27
2018-04-14T00:48:41.792Z,40.80
2018-04-14T00:51:12.903Z,36.97
2018-04-14T00:53:47.738Z,31.70
2018-04-14T00:56:15.809Z,30.70
2018-04-14T00:58:43.928Z,29.43
2018-04-14T01:01:14.685Z,26.33
2018-04-14T01:03:43.731Z,29.27
2018-04-14T01:06:11.815Z,27.83
2018-04-14T01:08:43.033Z,30.03
2018-04-14T01:11:14.597Z,31.00
2018-04-14T01:13:43.619Z,27.50
2018-04-14T01:16:17.249Z,26.10
2018-04-14T01:18:56.754Z,28.90
2018-04-14T01:21:26.518Z,28.77
2018-04-14T01:23:55.522Z,29.00
2018-04-14T01:26:24.500Z,29.83
2018-04-14T01:28:57.416Z,32.87
2018-04-14T01:31:26.408Z,32.30
2018-04-14T01:33:54.512Z,31.23
2018-04-14T01:36:22.638Z,28.03
2018-04-14T01:38:55.517Z,32.90
2018-04-14T01:41:23.655Z,32.90
2018-04-14T01:43:54.513Z,35.60
2018-04-14T01:46:32.402Z,35.63
2018-04-14T01:49:02.281Z,40.30
2018-04-14T01:51:30.373Z,41.00
2018-04-14T01:53:58.617Z,43.20
2018-04-14T01:56:27.620Z,40.93
2018-04-14T01:59:00.733Z,40.40
2018-04-14T02:04:34.546Z,34.70
2018-04-14T02:07:02.634Z,30.97
2018-04-14T02:09:30.713Z,31.93
2018-04-14T02:12:00.862Z,32.43
2018-04-14T02:14:31.650Z,31.87
2018-04-14T02:17:00.634Z,30.00
2018-04-14T02:19:28.737Z,28.10
2018-04-14T02:21:57.729Z,28.93
2018-04-14T02:27:33.593Z,28.10
2018-04-14T02:30:01.693Z,27.00
2018-04-14T02:32:32.441Z,24.50
2018-04-14T02:35:06.483Z,25.80
2018-04-14T02:37:42.924Z,24.13
2018-04-14T02:40:11.027Z,25.60
2018-04-14T02:42:39.869Z,27.67
2018-04-14T02:45:12.540Z,23.30
2018-04-14T02:47:41.610Z,23.17
2018-04-14T02:50:10.667Z,22.67
2018-04-14T02:52:38.746Z,22.67
2018-04-14T02:55:07.744Z,21.00
2018-04-14T02:57:37.782Z,21.40
2018-04-14T03:00:18.949Z,18.67
2018-04-14T03:02:48.010Z,19.33
2018-04-14T03:05:25.775Z,18.23
2018-04-14T03:07:53.857Z,15.57
2018-04-14T03:10:33.178Z,15.10
2018-04-14T03:13:01.261Z,15.50
2018-04-14T03:15:31.344Z,15.00
2018-04-14T03:18:01.354Z,12.60
2018-04-14T03:20:40.870Z,13.67
2018-04-14T03:23:09.930Z,13.93
2018-04-14T03:25:41.065Z,12.50
2018-04-14T03:28:09.153Z,11.90
2018-04-14T03:30:37.244Z,11.00
2018-04-14T03:33:05.336Z,10.83
2018-04-14T03:35:33.422Z,12.83
2018-04-14T03:38:13.908Z,11.27
2018-04-14T03:40:42.996Z,11.50
2018-04-14T03:43:22.600Z,11.03
2018-04-14T03:45:50.703Z,9.40
2018-04-14T03:48:27.292Z,9.93
2018-04-14T03:50:56.160Z,9.67
2018-04-14T03:53:27.268Z,10.20
2018-04-14T03:55:59.186Z,9.47
2018-04-14T03:58:42.326Z,10.20
2018-04-14T04:01:11.401Z,9.00
2018-04-14T04:03:44.603Z,8.90
2018-04-14T04:06:25.158Z,10.60
2018-04-14T04:08:53.246Z,8.97
2018-04-14T04:11:39.080Z,8.83
2018-04-14T04:14:10.426Z,9.70
2018-04-14T04:16:39.409Z,8.60
2018-04-14T04:19:21.174Z,8.50
2018-04-14T04:22:01.091Z,9.20
2018-04-14T04:38:26.331Z,11.17
2018-04-14T04:40:54.414Z,10.03
2018-04-14T04:43:25.218Z,9.70
2018-04-14T04:45:53.350Z,11.00
2018-04-14T04:48:22.402Z,11.37
2018-04-14T04:50:57.193Z,12.20
2018-04-14T04:53:33.804Z,11.70
2018-04-14T04:56:06.015Z,11.77
2018-04-14T04:58:46.321Z,11.60
2018-04-14T05:01:18.230Z,10.53
2018-04-14T05:03:56.841Z,11.43
2018-04-14T05:06:29.762Z,10.57
2018-04-14T05:09:05.437Z,10.03
2018-04-14T05:11:35.465Z,10.40
2018-04-14T05:14:04.457Z,10.40
2018-04-14T05:16:32.549Z,10.80
2018-04-14T05:19:24.662Z,8.80
2018-04-14T05:22:00.936Z,9.00
2018-04-14T05:24:29.041Z,8.37
2018-04-14T05:26:58.888Z,7.57
2018-04-14T05:32:33.371Z,8.17
2018-04-14T05:35:01.487Z,7.63
2018-04-14T05:37:37.988Z,7.40
2018-04-14T05:40:11.105Z,7.77
2018-04-14T05:42:39.189Z,7.60
2018-04-14T05:45:13.343Z,8.13
2018-04-14T05:47:43.990Z,8.00
2018-04-14T05:53:14.710Z,7.00
2018-04-14T05:55:44.998Z,7.37
2018-04-14T05:58:28.054Z,7.20
2018-04-14T06:00:56.144Z,6.23
2018-04-14T06:03:31.145Z,8.37
2018-04-14T06:05:59.480Z,6.97
2018-04-14T06:08:34.903Z,6.90
2018-04-14T06:11:04.938Z,6.87
2018-04-14T06:13:33.933Z,5.87
2018-04-14T06:16:14.396Z,7.27
2018-04-14T06:18:43.258Z,6.90
2018-04-14T06:21:16.105Z,7.60
2018-04-14T06:23:47.778Z,6.17
2018-04-14T06:26:15.858Z,7.97
2018-04-14T06:28:43.937Z,6.03
2018-04-14T06:31:12.029Z,6.10
2018-04-14T06:33:48.499Z,6.57
2018-04-14T06:36:34.841Z,6.17
2018-04-14T06:39:06.414Z,6.50
2018-04-14T06:41:40.942Z,6.87
2018-04-14T06:44:29.027Z,5.97
2018-04-14T06:47:01.705Z,5.70
2018-04-14T06:49:29.786Z,6.00
2018-04-14T06:52:12.757Z,5.70
2018-04-14T06:54:41.618Z,6.67
2018-04-14T06:57:12.949Z,5.40
2018-04-14T06:59:42.967Z,5.30
2018-04-14T07:02:18.101Z,5.23
2018-04-14T07:04:58.792Z,6.17
2018-04-14T07:07:30.786Z,6.87
2018-04-14T07:10:00.806Z,5.40
2018-04-14T07:12:30.697Z,5.73
2018-04-14T07:15:12.188Z,4.93
2018-04-14T07:17:45.512Z,5.40
2018-04-14T07:20:19.949Z,4.80
2018-04-14T07:23:01.507Z,5.13
2018-04-14T07:25:31.503Z,5.90
2018-04-14T07:28:03.688Z,5.63
2018-04-14T07:30:36.564Z,4.97
2018-04-14T07:33:05.585Z,4.50
2018-04-14T07:35:50.487Z,4.77
2018-04-14T07:38:18.577Z,4.53
2018-04-14T07:40:46.674Z,3.83
2018-04-14T07:43:18.705Z,4.50
2018-04-14T07:45:46.805Z,4.03
2018-04-14T07:48:21.158Z,4.80
2018-04-14T07:50:53.003Z,4.37
2018-04-14T07:53:21.123Z,5.50
2018-04-14T07:55:53.418Z,4.57
2018-04-14T07:58:21.502Z,5.47
2018-04-14T08:00:49.611Z,4.50
2018-04-14T08:03:21.841Z,4.30
2018-04-14T08:05:50.162Z,3.60
2018-04-14T08:08:18.415Z,3.67
2018-04-14T08:10:54.644Z,4.13
2018-04-14T08:13:26.741Z,4.00
2018-04-14T08:15:58.410Z,3.53
2018-04-14T08:18:32.721Z,4.03
2018-04-14T08:21:01.577Z,3.13
2018-04-14T08:23:29.693Z,3.80
2018-04-14T08:25:58.778Z,3.83
2018-04-14T08:28:26.873Z,3.07
2018-04-14T08:30:54.964Z,3.43
2018-04-14T08:33:23.085Z,3.97
2018-04-14T08:35:51.198Z,3.27
2018-04-14T08:38:20.281Z,3.27
2018-04-14T08:40:50.362Z,3.80
2018-04-14T08:43:20.447Z,3.50
2018-04-14T08:45:53.026Z,3.50
2018-04-14T08:48:28.446Z,4.20
2018-04-14T08:50:56.557Z,3.20
2018-04-14T08:53:25.514Z,2.80
2018-04-14T08:55:53.623Z,3.47
2018-04-14T08:58:31.975Z,3.40
2018-04-14T09:01:00.970Z,3.17
2018-04-14T09:03:29.112Z,3.40
2018-04-14T09:05:57.217Z,3.20
2018-04-14T09:08:26.250Z,3.20
2018-04-14T09:11:00.915Z,3.30
2018-04-14T09:13:41.559Z,3.50
2018-04-14T09:16:11.447Z,4.30
2018-04-14T09:18:40.409Z,4.23
2018-04-14T09:21:08.476Z,4.20
2018-04-14T09:23:37.333Z,3.50
2018-04-14T09:26:06.409Z,4.10
2018-04-14T09:28:35.434Z,4.20
2018-04-14T09:31:08.508Z,3.93
2018-04-14T09:33:36.590Z,3.70
2018-04-14T09:36:12.762Z,3.70
2018-04-14T09:38:44.717Z,3.90
2018-04-14T09:41:14.221Z,3.90
2018-04-14T09:43:43.295Z,4.60
2018-04-14T09:46:11.435Z,4.27
2018-04-14T09:48:40.286Z,3.80
2018-04-14T09:51:09.388Z,4.70
2018-04-14T09:53:37.487Z,4.40
2018-04-14T09:56:05.686Z,4.90
2018-04-14T09:58:33.838Z,5.40
2018-04-14T10:01:09.781Z,4.30
2018-04-14T10:03:39.829Z,4.40
2018-04-14T10:06:07.915Z,4.90
2018-04-14T10:08:35.998Z,5.00
2018-04-14T10:11:04.145Z,5.67
2018-04-14T10:13:32.217Z,4.67
2018-04-14T10:16:00.317Z,5.27
2018-04-14T10:18:39.331Z,5.10
2018-04-14T10:21:07.426Z,4.50
2018-04-14T10:23:41.861Z,4.83
2018-04-14T10:26:09.958Z,5.87
2018-04-14T10:28:39.790Z,5.60
2018-04-14T10:31:07.916Z,5.57
2018-04-14T10:33:46.792Z,5.30
2018-04-14T10:36:14.945Z,5.60
2018-04-14T10:38:43.828Z,5.73
2018-04-14T10:41:12.832Z,4.67
2018-04-14T10:43:42.833Z,5.30
2018-04-14T10:46:15.021Z,5.80
2018-04-14T10:48:45.119Z,5.33
2018-04-14T10:51:13.291Z,5.30
2018-04-14T10:53:49.546Z,4.90
2018-04-14T10:56:28.185Z,5.00
2018-04-14T10:58:56.318Z,4.33
2018-04-14T11:01:25.173Z,4.00
2018-04-14T11:04:13.377Z,5.40
2018-04-14T11:07:01.966Z,5.90
2018-04-14T11:09:30.062Z,4.77
2018-04-14T11:12:00.105Z,5.20
2018-04-14T11:14:28.959Z,5.20
2018-04-14T11:17:01.888Z,5.93
2018-04-14T11:19:30.340Z,6.20
2018-04-14T11:22:00.416Z,5.93
2018-04-14T11:24:29.660Z,4.73
2018-04-14T11:26:58.841Z,5.43
2018-04-14T11:29:27.998Z,4.70
2018-04-14T11:31:58.882Z,4.67
2018-04-14T11:34:28.989Z,4.90
2018-04-14T11:36:57.903Z,4.60
2018-04-14T11:39:26.095Z,4.07
2018-04-14T11:42:05.022Z,3.50
2018-04-14T11:44:33.487Z,3.50
2018-04-14T11:47:10.278Z,3.93
2018-04-14T11:49:40.443Z,3.37
2018-04-14T11:52:09.659Z,4.17
2018-04-14T11:54:40.809Z,4.13
2018-04-14T11:57:09.849Z,3.83
2018-04-14T11:59:48.733Z,4.23
2018-04-14T12:02:18.000Z,3.73
2018-04-14T12:04:46.642Z,4.57
2018-04-14T12:07:14.922Z,5.20
2018-04-14T12:09:43.180Z,4.33
2018-04-14T12:12:12.371Z,4.70
2018-04-14T12:14:42.223Z,4.90
2018-04-14T12:17:10.423Z,5.00
2018-04-14T12:19:39.885Z,5.10
2018-04-14T12:22:10.010Z,4.33
2018-04-14T12:24:39.079Z,4.70
2018-04-14T12:27:07.214Z,4.60
2018-04-14T12:29:47.894Z,4.80
2018-04-14T12:32:16.128Z,4.70
2018-04-14T12:34:50.222Z,5.77
2018-04-14T12:37:23.250Z,3.97
2018-04-14T12:39:56.094Z,5.20
2018-04-14T12:42:26.234Z,5.53
2018-04-14T12:44:54.361Z,6.53
2018-04-14T12:47:23.453Z,5.40
2018-04-14T12:50:02.380Z,5.57
2018-04-14T12:52:30.504Z,5.63
2018-04-14T12:55:03.249Z,7.27
2018-04-14T12:57:31.393Z,7.20
2018-04-14T13:00:00.490Z,5.70
2018-04-14T13:02:28.916Z,6.50
2018-04-14T13:04:57.776Z,6.60
2018-04-14T13:07:26.871Z,7.20
2018-04-14T13:09:55.022Z,7.30
2018-04-14T13:12:34.945Z,6.30
2018-04-14T13:15:15.645Z,7.23
2018-04-14T13:17:43.750Z,7.60
2018-04-14T13:20:11.828Z,7.40
2018-04-14T13:22:44.397Z,7.67
2018-04-14T13:25:20.906Z,8.40
2018-04-14T13:27:51.665Z,8.60
2018-04-14T13:30:28.269Z,8.60
2018-04-14T13:33:03.873Z,9.80
2018-04-14T13:35:35.873Z,8.20
2018-04-14T13:38:09.732Z,10.07
2018-04-14T13:40:42.592Z,9.90
2018-04-14T13:43:11.469Z,12.67
2018-04-14T13:45:39.593Z,11.90
2018-04-14T13:48:07.672Z,16.07
2018-04-14T13:50:37.726Z,16.67
2018-04-14T13:53:07.810Z,15.93
2018-04-14T13:55:35.945Z,16.70
2018-04-14T13:58:04.041Z,17.33
2018-04-14T14:00:32.179Z,17.13
2018-04-14T14:03:04.351Z,19.90
2018-04-14T14:05:37.885Z,21.10
2018-04-14T14:08:06.877Z,17.30
2018-04-14T14:10:34.983Z,18.10
2018-04-14T14:13:05.147Z,18.47
2018-04-14T14:15:34.234Z,18.03
2018-04-14T14:18:16.038Z,17.80
2018-04-14T14:20:47.413Z,16.47
2018-04-14T14:23:21.171Z,17.20
2018-04-14T14:25:49.278Z,18.90
2018-04-14T14:28:17.391Z,16.57
2018-04-14T14:30:49.213Z,19.60
2018-04-14T14:33:22.965Z,16.90
2018-04-14T14:35:52.086Z,18.60
2018-04-14T14:38:28.592Z,19.83
2018-04-14T14:41:14.998Z,18.33
2018-04-14T14:43:43.086Z,19.83
2018-04-14T14:46:14.981Z,18.50
2018-04-14T14:48:43.138Z,21.50
2018-04-14T14:51:13.002Z,21.67
2018-04-14T14:53:42.031Z,20.67
2018-04-14T14:56:11.999Z,22.53
2018-04-14T14:58:46.761Z,23.00
2018-04-14T15:01:15.789Z,20.90
2018-04-14T15:03:44.793Z,19.03
2018-04-14T15:06:13.814Z,23.40
2018-04-14T15:08:41.927Z,22.37
2018-04-14T15:11:11.794Z,24.80
2018-04-14T15:13:42.852Z,25.23
2018-04-14T15:16:14.535Z,28.23
2018-04-14T15:18:47.400Z,27.17
2018-04-14T15:21:16.284Z,26.33
2018-04-14T15:23:48.427Z,24.87
2018-04-14T15:26:16.526Z,22.10
2018-04-14T15:28:49.751Z,25.80
2018-04-14T15:31:17.857Z,24.60
2018-04-14T15:33:49.568Z,23.10
2018-04-14T15:36:17.622Z,20.97
2018-04-14T15:38:47.654Z,25.77
2018-04-14T15:41:21.373Z,24.60
2018-04-14T15:43:49.506Z,22.97
2018-04-14T15:46:28.556Z,23.10
2018-04-14T15:49:10.746Z,23.87
2018-04-14T15:51:38.924Z,25.80
2018-04-14T15:54:10.874Z,28.50
2018-04-14T15:56:44.802Z,24.70
2018-04-14T15:59:16.451Z,25.93
2018-04-14T16:01:59.498Z,24.80
2018-04-14T16:04:32.724Z,26.50
2018-04-14T16:07:01.734Z,26.90
2018-04-14T16:09:29.825Z,26.90
2018-04-14T16:11:58.920Z,26.17
2018-04-14T16:14:30.681Z,27.20
2018-04-14T16:17:00.772Z,28.23
2018-04-14T16:19:28.894Z,27.83
2018-04-14T16:21:58.809Z,26.50
2018-04-14T16:24:26.914Z,26.73
2018-04-14T16:26:55.033Z,27.00
2018-04-14T16:29:23.157Z,27.70
2018-04-14T16:31:56.222Z,26.93
2018-04-14T16:34:30.173Z,28.40
2018-04-14T16:36:58.298Z,28.07
2018-04-14T16:39:44.843Z,27.63
2018-04-14T16:42:17.411Z,27.30
2018-04-14T16:44:46.489Z,26.60
2018-04-14T16:47:28.250Z,26.53
2018-04-14T16:50:04.331Z,28.20
2018-04-14T16:52:32.449Z,28.47
2018-04-14T16:55:00.596Z,26.60
2018-04-14T16:57:37.088Z,27.53
2018-04-14T17:00:06.982Z,26.13
2018-04-14T17:02:35.107Z,26.27
2018-04-14T17:05:03.988Z,27.83
2018-04-14T17:07:34.067Z,26.27
2018-04-14T17:10:03.100Z,26.20
2018-04-14T17:12:39.613Z,27.00
2018-04-14T17:15:08.695Z,28.53
2018-04-14T17:20:34.536Z,25.67
2018-04-14T17:23:08.609Z,27.07
2018-04-14T17:25:38.520Z,25.97
2018-04-14T17:28:09.289Z,28.50
2018-04-14T17:31:02.541Z,26.87
2018-04-14T17:33:38.466Z,29.47
2018-04-14T17:36:07.451Z,28.20
2018-04-14T17:38:37.522Z,29.13
2018-04-14T17:41:18.984Z,28.10
2018-04-14T17:44:05.778Z,28.80
2018-04-14T17:46:34.911Z,34.10
2018-04-14T17:49:06.967Z,28.73
2018-04-14T17:51:37.711Z,27.27
2018-04-14T17:54:07.550Z,30.27
2018-04-14T17:56:37.638Z,28.67
2018-04-14T17:59:05.738Z,28.53
2018-04-14T18:01:35.852Z,29.60
2018-04-14T18:04:09.174Z,29.77
2018-04-14T18:06:41.858Z,28.77
2018-04-14T18:09:10.662Z,26.40
2018-04-14T18:11:47.094Z,28.00
2018-04-14T18:20:37.713Z,29.30
2018-04-14T18:23:06.610Z,28.20
2018-04-14T18:25:34.721Z,34.00
2018-04-14T18:28:08.602Z,31.20
2018-04-14T18:30:43.134Z,29.73
2018-04-14T18:33:11.238Z,28.57
2018-04-14T18:35:39.359Z,27.57
2018-04-14T18:38:11.523Z,28.83
2018-04-14T18:40:46.039Z,30.97
2018-04-14T18:43:14.122Z,29.30
2018-04-14T18:45:50.588Z,30.37
2018-04-14T18:48:20.439Z,32.20
2018-04-14T18:50:54.128Z,30.67
2018-04-14T18:53:28.903Z,29.60
2018-04-14T18:56:06.333Z,29.40
2018-04-14T18:58:38.234Z,30.00
2018-04-14T19:01:10.482Z,30.20
2018-04-14T19:03:41.509Z,29.50
2018-04-14T19:06:15.190Z,28.37
2018-04-14T19:08:43.278Z,29.47
2018-04-14T19:11:12.395Z,32.83
2018-04-14T19:13:47.814Z,29.77
2018-04-14T19:16:29.249Z,30.43
2018-04-14T19:18:58.930Z,31.73
2018-04-14T19:21:32.323Z,30.10
2018-04-14T19:24:06.103Z,29.70
2018-04-14T19:26:35.088Z,29.77
2018-04-14T19:29:05.104Z,30.00
2018-04-14T19:31:36.282Z,29.50
2018-04-14T19:34:10.698Z,29.20
2018-04-14T19:36:46.521Z,29.67
2018-04-14T19:39:25.232Z,31.60
2018-04-14T19:42:11.768Z,30.50
2018-04-14T19:44:39.888Z,32.00
2018-04-14T19:47:15.978Z,32.13
2018-04-14T19:49:56.548Z,31.77
2018-04-14T19:52:27.339Z,30.13
2018-04-14T19:54:58.991Z,27.83
2018-04-14T19:57:29.268Z,31.10
2018-04-14T19:59:59.360Z,33.07
2018-04-14T20:02:28.505Z,36.03
2018-04-14T20:04:59.634Z,34.43
2018-04-14T20:07:29.938Z,34.03
2018-04-14T20:10:07.614Z,35.40
2018-04-14T20:12:36.944Z,36.40
2018-04-14T20:15:08.844Z,34.03
2018-04-14T20:17:44.498Z,34.93
2018-04-14T20:20:17.933Z,32.73
2018-04-14T20:22:50.974Z,33.20
2018-04-14T20:25:22.579Z,35.80
2018-04-14T20:27:51.720Z,33.53
2018-04-14T20:30:21.822Z,33.87
2018-04-14T20:32:57.252Z,35.20
2018-04-14T20:35:26.269Z,33.40
2018-04-14T20:37:58.185Z,35.57
2018-04-14T20:40:29.907Z,34.63
2018-04-14T20:42:58.013Z,35.03
2018-04-14T20:45:26.147Z,34.97
2018-04-14T20:48:07.158Z,33.57
2018-04-14T20:53:32.386Z,34.60
2018-04-14T20:56:00.573Z,36.00
2018-04-14T20:58:41.578Z,34.33
2018-04-14T21:01:14.818Z,36.60
2018-04-14T21:03:44.530Z,35.77
2018-04-14T21:06:13.728Z,38.07
2018-04-14T21:08:42.415Z,36.77
2018-04-14T21:11:13.580Z,36.10
2018-04-14T21:13:44.231Z,36.37
2018-04-14T21:16:14.810Z,35.73
2018-04-14T21:18:55.348Z,36.20
2018-04-14T21:21:26.117Z,37.20
2018-04-14T21:23:57.244Z,35.70
2018-04-14T21:26:25.330Z,38.20
2018-04-14T21:28:53.418Z,32.37
2018-04-14T21:31:26.402Z,36.53
2018-04-14T21:33:55.312Z,34.37
2018-04-14T21:36:24.204Z,35.80
2018-04-14T21:38:56.718Z,34.97
2018-04-14T21:41:24.871Z,35.13
2018-04-14T21:43:53.794Z,37.20
2018-04-14T21:46:21.919Z,35.87
2018-04-14T21:48:50.026Z,35.30
2018-04-14T21:51:18.162Z,35.63
2018-04-14T21:53:46.368Z,34.50
2018-04-14T21:56:20.078Z,34.77
2018-04-14T21:58:58.663Z,33.57
2018-04-14T22:01:29.459Z,33.60
2018-04-14T22:03:57.575Z,36.00
2018-04-14T22:06:25.681Z,34.70
2018-04-14T22:09:01.412Z,35.43
2018-04-14T22:11:30.520Z,35.60
2018-04-14T22:13:59.953Z,36.20
2018-04-14T22:16:29.036Z,34.33
2018-04-14T22:19:03.186Z,32.83
2018-04-14T22:21:31.278Z,35.23
2018-04-14T22:26:56.874Z,35.70
2018-04-14T22:29:24.976Z,37.20
2018-04-14T22:31:54.057Z,37.07
2018-04-14T22:34:33.911Z,34.40
2018-04-14T22:37:02.013Z,34.80
2018-04-14T22:39:34.905Z,35.03
2018-04-14T22:42:04.931Z,35.00
2018-04-14T22:44:33.037Z,36.70
2018-04-14T22:49:59.089Z,36.20
2018-04-14T22:52:32.043Z,36.20
2018-04-14T22:55:00.137Z,36.20
2018-04-14T22:57:37.533Z,37.17
2018-04-14T23:00:06.052Z,34.67
2018-04-14T23:02:34.877Z,37.37
2018-04-14T23:05:15.675Z,36.90
2018-04-14T23:07:47.937Z,36.47
2018-04-14T23:10:26.732Z,37.40
2018-04-14T23:12:55.639Z,35.63
2018-04-14T23:15:28.880Z,38.17
2018-04-14T23:18:00.168Z,38.80
2018-04-14T23:20:30.253Z,38.40
2018-04-14T23:23:11.684Z,38.70
2018-04-14T23:25:40.602Z,39.27
2018-04-14T23:28:12.420Z,37.60
2018-04-14T23:30:59.835Z,38.30
2018-04-14T23:33:29.638Z,37.23
2018-04-14T23:35:58.452Z,40.17
2018-04-14T23:38:27.531Z,37.40
2018-04-14T23:41:00.361Z,38.00
2018-04-14T23:43:30.076Z,39.73
2018-04-14T23:49:02.777Z,37.90
2018-04-14T23:51:35.469Z,38.57
2018-04-14T23:54:16.433Z,35.37
2018-04-14T23:56:46.101Z,38.47
2018-04-14T23:59:14.198Z,38.37
